Time;durP1;ratioP1;P1;durP2;ratioP2;P2;SDS_P1;SDS_P2;PMS_P1;PMS_P2;Temp;Humidity;BMP_temperature;BMP_pressure;BME280_temperature;BME280_humidity;BME280_pressure;Samples;Min_cycle;Max_cycle;Signal;HPM_P1;HPM_P2
2022/08/16 00:01:13;;;;;;;12.90;10.33;;;25.40;56.20;;;;;;5003416;28;20202;-95
2022/08/16 00:03:41;;;;;;;19.90;12.33;;;25.40;56.10;;;;;;5010375;28;20205;-92
2022/08/16 00:06:08;;;;;;;13.47;10.33;;;25.40;56.30;;;;;;5008583;28;20208;-93
2022/08/16 00:08:54;;;;;;;14.03;11.43;;;25.30;56.30;;;;;;5000414;28;20309;-94
2022/08/16 00:11:24;;;;;;;13.20;10.50;;;25.20;56.90;;;;;;4992264;28;20283;-96
2022/08/16 00:13:57;;;;;;;13.70;10.40;;;25.20;56.70;;;;;;5004703;28;20702;-94
2022/08/16 00:16:32;;;;;;;13.57;10.53;;;25.10;56.90;;;;;;5002857;28;20300;-94
2022/08/16 00:19:03;;;;;;;14.63;11.33;;;25.10;57.20;;;;;;5001361;28;20228;-94
2022/08/16 00:21:31;;;;;;;17.97;11.20;;;25.10;56.90;;;;;;5002298;28;20229;-93
2022/08/16 00:23:59;;;;;;;16.23;11.83;;;25.00;56.80;;;;;;5008289;28;20194;-93
2022/08/16 00:26:28;;;;;;;14.40;11.60;;;25.00;57.10;;;;;;5004881;28;20212;-92
2022/08/16 00:29:00;;;;;;;12.20;10.93;;;24.90;57.30;;;;;;4996751;28;20202;-93
2022/08/16 00:31:37;;;;;;;16.67;11.30;;;24.90;57.40;;;;;;5000076;28;20232;-93
2022/08/16 00:34:10;;;;;;;13.23;10.57;;;24.80;57.70;;;;;;5000437;28;20209;-94
2022/08/16 00:36:39;;;;;;;19.03;12.80;;;24.80;57.60;;;;;;5001705;28;20194;-93
2022/08/16 00:39:12;;;;;;;13.10;11.67;;;24.70;57.40;;;;;;5012646;28;20256;-93
2022/08/16 00:41:39;;;;;;;16.53;11.67;;;24.70;57.80;;;;;;5004651;28;20311;-93
2022/08/16 00:44:11;;;;;;;13.63;11.50;;;24.60;57.60;;;;;;4988637;28;20217;-94
2022/08/16 00:46:43;;;;;;;18.43;12.37;;;24.60;58.10;;;;;;4993739;28;20272;-94
2022/08/16 00:49:19;;;;;;;16.80;12.20;;;24.50;58.00;;;;;;4999410;28;20224;-95
2022/08/16 00:51:49;;;;;;;18.90;12.73;;;24.50;58.50;;;;;;4998960;28;20211;-93
2022/08/16 00:54:18;;;;;;;16.77;11.17;;;24.40;58.30;;;;;;4999507;28;20268;-93
2022/08/16 00:56:50;;;;;;;13.43;11.83;;;24.40;58.40;;;;;;4998679;28;20216;-94
2022/08/16 00:59:23;;;;;;;15.27;11.90;;;24.30;58.50;;;;;;4977633;28;20234;-95
2022/08/16 01:01:53;;;;;;;16.53;12.20;;;24.30;58.70;;;;;;4998928;28;20208;-95
2022/08/16 01:04:30;;;;;;;14.13;11.87;;;24.30;59.30;;;;;;5011850;28;20212;-94
2022/08/16 01:07:00;;;;;;;13.90;12.27;;;24.30;59.10;;;;;;4999220;28;20209;-95
2022/08/16 01:09:30;;;;;;;14.60;11.70;;;24.20;58.90;;;;;;4990108;28;20209;-96
2022/08/16 01:11:59;;;;;;;14.17;11.77;;;24.20;59.00;;;;;;4981856;28;20240;-95
2022/08/16 01:14:32;;;;;;;12.83;11.53;;;24.20;59.00;;;;;;4993081;28;20237;-95
2022/08/16 01:17:02;;;;;;;15.73;11.93;;;24.10;59.00;;;;;;5005235;28;20211;-95
2022/08/16 01:19:33;;;;;;;14.30;11.87;;;24.10;58.90;;;;;;5006515;28;20312;-95
2022/08/16 01:22:13;;;;;;;18.03;12.80;;;24.10;59.20;;;;;;5010428;28;20184;-94
2022/08/16 01:24:51;;;;;;;19.10;13.97;;;24.00;59.60;;;;;;5010281;28;20215;-94
2022/08/16 01:27:22;;;;;;;18.07;13.67;;;24.00;59.60;;;;;;5007823;28;20235;-95
2022/08/16 01:29:56;;;;;;;15.17;12.87;;;24.00;59.40;;;;;;5006533;28;20210;-96
2022/08/16 01:32:28;;;;;;;16.07;12.13;;;23.90;59.50;;;;;;5005244;28;20207;-95
2022/08/16 01:34:56;;;;;;;15.50;12.33;;;23.90;59.50;;;;;;5000301;28;20308;-94
2022/08/16 01:37:25;;;;;;;14.40;12.90;;;23.90;59.60;;;;;;5002964;28;20260;-94
2022/08/16 01:40:03;;;;;;;22.60;14.27;;;23.80;59.60;;;;;;5004216;28;20251;-95
2022/08/16 01:42:33;;;;;;;15.50;11.90;;;23.80;60.20;;;;;;4989289;28;20681;-95
2022/08/16 01:45:01;;;;;;;16.07;13.17;;;23.80;59.70;;;;;;4984370;28;20208;-94
2022/08/16 01:47:34;;;;;;;16.00;12.40;;;23.80;60.00;;;;;;4987417;28;20215;-96
2022/08/16 01:50:18;;;;;;;15.90;12.57;;;23.80;60.80;;;;;;4987472;28;20207;-94
2022/08/16 01:52:50;;;;;;;15.23;12.93;;;23.70;60.60;;;;;;4984008;28;20200;-93
2022/08/16 01:55:23;;;;;;;18.83;13.60;;;23.70;60.40;;;;;;5000004;28;20287;-94
2022/08/16 01:57:55;;;;;;;16.20;12.30;;;23.70;60.70;;;;;;4982989;28;20208;-95
2022/08/16 02:00:27;;;;;;;17.77;13.30;;;23.70;60.50;;;;;;4999690;28;20232;-93
2022/08/16 02:02:57;;;;;;;18.20;13.93;;;23.70;60.90;;;;;;5001385;28;20236;-94
2022/08/16 02:05:27;;;;;;;19.87;13.67;;;23.60;60.80;;;;;;4999808;28;20684;-96
2022/08/16 02:08:00;;;;;;;13.77;12.27;;;23.60;61.00;;;;;;5002035;28;20195;-94
2022/08/16 02:10:34;;;;;;;19.10;14.23;;;23.60;61.40;;;;;;4984180;28;20651;-95
2022/08/16 02:13:04;;;;;;;18.60;14.03;;;23.60;61.40;;;;;;5001466;28;20278;-94
2022/08/16 02:15:38;;;;;;;16.17;13.53;;;23.60;61.10;;;;;;4982147;28;20230;-94
2022/08/16 02:18:06;;;;;;;15.93;13.20;;;23.60;61.30;;;;;;4992296;28;20665;-95
2022/08/16 02:20:37;;;;;;;20.50;14.47;;;23.60;61.30;;;;;;4980673;28;20235;-95
2022/08/16 02:23:06;;;;;;;16.17;12.70;;;23.50;61.60;;;;;;4999234;28;20263;-95
2022/08/16 02:25:37;;;;;;;20.40;13.67;;;23.50;61.50;;;;;;4999107;28;20217;-95
2022/08/16 02:28:06;;;;;;;15.40;13.40;;;23.50;61.80;;;;;;5000841;28;20206;-95
2022/08/16 02:30:35;;;;;;;18.33;14.53;;;23.50;61.80;;;;;;5004453;28;20433;-95
2022/08/16 02:33:06;;;;;;;16.80;13.77;;;23.50;61.80;;;;;;5002133;28;20218;-95
2022/08/16 02:35:36;;;;;;;17.00;13.60;;;23.50;61.80;;;;;;5003635;28;20745;-95
2022/08/16 02:38:04;;;;;;;19.60;13.87;;;23.50;61.90;;;;;;4994117;28;20229;-94
2022/08/16 02:40:38;;;;;;;15.00;13.47;;;23.50;61.80;;;;;;4983198;28;20252;-95
2022/08/16 02:43:09;;;;;;;16.47;14.00;;;23.40;62.10;;;;;;4981836;28;20242;-95
2022/08/16 02:45:37;;;;;;;19.27;14.10;;;23.40;62.10;;;;;;4998989;28;20245;-94
2022/08/16 02:48:07;;;;;;;19.10;13.67;;;23.40;62.20;;;;;;5006793;28;20270;-96
2022/08/16 02:50:39;;;;;;;21.50;14.63;;;23.40;62.10;;;;;;5013222;28;20241;-94
2022/08/16 02:53:07;;;;;;;15.00;13.40;;;23.40;62.70;;;;;;4998191;28;20201;-93
2022/08/16 02:55:38;;;;;;;16.43;12.57;;;23.40;62.50;;;;;;4998443;28;20280;-96
2022/08/16 02:58:26;;;;;;;18.23;13.43;;;23.30;62.70;;;;;;5006914;28;20208;-96
2022/08/16 03:01:01;;;;;;;14.97;13.27;;;23.30;63.00;;;;;;5003796;28;20234;-96
2022/08/16 03:03:31;;;;;;;16.93;12.87;;;23.30;62.80;;;;;;5004246;28;20229;-96
2022/08/16 03:06:07;;;;;;;18.87;13.43;;;23.30;62.40;;;;;;4998775;28;20265;-95
2022/08/16 03:08:39;;;;;;;14.17;12.67;;;23.30;62.50;;;;;;4985685;28;20203;-94
2022/08/16 03:11:08;;;;;;;15.37;12.60;;;23.30;62.80;;;;;;5011483;28;20202;-95
2022/08/16 03:13:37;;;;;;;17.73;13.47;;;23.30;62.80;;;;;;5014522;28;20570;-95
2022/08/16 03:16:06;;;;;;;16.07;12.90;;;23.30;62.70;;;;;;4995933;28;20211;-95
2022/08/16 03:18:41;;;;;;;17.73;13.73;;;23.30;62.20;;;;;;4988632;28;20671;-95
2022/08/16 03:21:14;;;;;;;20.33;13.10;;;23.30;63.30;;;;;;4996189;28;20237;-95
2022/08/16 03:23:44;;;;;;;16.30;13.27;;;23.30;63.20;;;;;;5004948;28;20210;-94
2022/08/16 03:26:19;;;;;;;15.97;13.60;;;23.30;62.90;;;;;;5003038;28;20212;-95
2022/08/16 03:28:47;;;;;;;16.23;12.70;;;23.30;63.40;;;;;;4984047;28;20198;-95
2022/08/16 03:31:15;;;;;;;17.13;12.87;;;23.30;63.00;;;;;;4992848;28;21023;-95
2022/08/16 03:33:44;;;;;;;17.30;13.17;;;23.30;62.80;;;;;;5000219;28;20215;-95
2022/08/16 03:36:11;;;;;;;19.03;12.73;;;23.30;63.00;;;;;;4997883;28;20217;-94
2022/08/16 03:38:41;;;;;;;20.73;14.63;;;23.30;62.90;;;;;;4999395;28;20226;-94
2022/08/16 03:41:09;;;;;;;16.13;13.90;;;23.30;63.00;;;;;;5001245;28;20641;-94
2022/08/16 03:43:43;;;;;;;17.47;13.17;;;23.30;63.10;;;;;;5002576;28;20199;-92
2022/08/16 03:46:19;;;;;;;19.60;14.40;;;23.30;63.50;;;;;;5011354;28;20205;-93
2022/08/16 03:48:48;;;;;;;19.30;14.00;;;23.30;63.40;;;;;;5009923;28;20193;-92
2022/08/16 03:51:30;;;;;;;14.67;12.30;;;23.30;63.20;;;;;;5003502;28;20210;-92
2022/08/16 03:53:57;;;;;;;15.20;12.90;;;23.30;63.60;;;;;;5001623;28;20211;-95
2022/08/16 03:56:27;;;;;;;18.97;13.30;;;23.30;63.10;;;;;;5000768;28;20203;-92
2022/08/16 03:59:05;;;;;;;14.80;13.17;;;23.30;63.30;;;;;;4997759;28;20216;-92
2022/08/16 04:01:50;;;;;;;23.73;14.07;;;23.30;63.60;;;;;;4996757;28;20229;-92
2022/08/16 04:04:18;;;;;;;26.63;15.40;;;23.30;63.60;;;;;;4990717;28;20241;-94
2022/08/16 04:06:46;;;;;;;20.07;13.93;;;23.30;63.10;;;;;;4997995;28;20210;-91
2022/08/16 04:09:20;;;;;;;15.90;12.73;;;23.20;63.30;;;;;;4997812;28;20216;-94
2022/08/16 04:12:01;;;;;;;16.73;14.00;;;23.30;63.50;;;;;;5003770;28;20208;-93
2022/08/16 04:14:31;;;;;;;16.43;12.57;;;23.30;63.50;;;;;;4997931;28;20218;-93
2022/08/16 04:17:02;;;;;;;16.93;13.23;;;23.20;63.40;;;;;;4985986;28;20211;-93
2022/08/16 04:19:29;;;;;;;18.60;14.03;;;23.30;63.50;;;;;;4989442;28;20213;-92
2022/08/16 04:21:58;;;;;;;18.13;13.97;;;23.20;63.30;;;;;;5006775;28;20237;-94
2022/08/16 04:24:33;;;;;;;21.00;14.20;;;23.20;63.40;;;;;;4997900;28;20202;-93
2022/08/16 04:27:15;;;;;;;22.73;14.40;;;23.20;63.40;;;;;;4985971;28;20278;-92
2022/08/16 04:29:44;;;;;;;15.47;12.87;;;23.20;63.60;;;;;;4993202;28;20238;-93
2022/08/16 04:32:16;;;;;;;19.50;13.10;;;23.20;63.40;;;;;;5003445;28;20190;-93
2022/08/16 04:34:52;;;;;;;22.53;13.93;;;23.20;63.40;;;;;;4999977;28;20198;-91
2022/08/16 04:37:23;;;;;;;18.23;12.93;;;23.20;63.80;;;;;;5009200;28;20220;-94
2022/08/16 04:39:58;;;;;;;17.43;13.50;;;23.20;63.60;;;;;;5019399;28;20198;-92
2022/08/16 04:42:28;;;;;;;16.33;11.90;;;23.30;64.80;;;;;;5008584;28;20218;-92
2022/08/16 04:45:09;;;;;;;19.57;15.10;;;23.20;63.50;;;;;;5006093;28;20217;-93
2022/08/16 04:47:42;;;;;;;21.37;13.97;;;23.20;63.50;;;;;;5008541;28;20206;-93
2022/08/16 04:50:17;;;;;;;19.40;14.23;;;23.20;63.40;;;;;;5006102;28;20202;-92
2022/08/16 04:52:47;;;;;;;20.03;13.57;;;23.30;63.50;;;;;;5006121;28;20205;-92
2022/08/16 04:55:21;;;;;;;20.97;14.83;;;23.20;63.40;;;;;;5004650;28;20210;-90
2022/08/16 04:57:59;;;;;;;20.47;14.97;;;23.30;63.60;;;;;;5005947;28;20233;-93
2022/08/16 05:00:36;;;;;;;19.67;13.90;;;23.30;63.60;;;;;;5002505;28;20211;-92
2022/08/16 05:03:06;;;;;;;19.77;13.10;;;23.30;64.00;;;;;;5000537;28;20287;-94
2022/08/16 05:05:34;;;;;;;16.40;13.47;;;23.30;63.50;;;;;;4998242;28;20261;-94
2022/08/16 05:08:08;;;;;;;16.90;13.40;;;23.30;63.60;;;;;;5002789;28;20202;-93
2022/08/16 05:10:43;;;;;;;15.53;13.70;;;23.30;63.80;;;;;;5002935;28;20227;-91
2022/08/16 05:13:12;;;;;;;19.70;14.30;;;23.20;63.80;;;;;;5003683;28;20200;-93
2022/08/16 05:15:41;;;;;;;18.53;14.60;;;23.20;63.60;;;;;;5005455;28;20226;-94
2022/08/16 05:18:08;;;;;;;17.47;13.73;;;23.20;63.60;;;;;;5000167;28;20853;-93
2022/08/16 05:20:37;;;;;;;22.90;14.13;;;23.20;63.50;;;;;;5002325;28;20230;-91
2022/08/16 05:23:11;;;;;;;19.80;14.57;;;23.20;63.80;;;;;;5002847;28;20207;-92
2022/08/16 05:25:40;;;;;;;17.10;12.90;;;23.20;63.70;;;;;;5003340;28;20276;-92
2022/08/16 05:28:09;;;;;;;20.20;14.70;;;23.30;63.70;;;;;;4999584;28;20255;-91
2022/08/16 05:31:01;;;;;;;20.07;14.70;;;23.20;63.60;;;;;;4995197;28;20212;-91
2022/08/16 05:36:16;;;;;;;21.10;13.57;;;23.20;63.60;;;;;;5004204;28;20198;-95
2022/08/16 05:38:46;;;;;;;23.70;14.57;;;23.20;63.60;;;;;;5004030;28;20239;-91
2022/08/16 05:41:14;;;;;;;20.23;13.43;;;23.30;64.00;;;;;;5012633;28;20217;-92
2022/08/16 05:46:34;;;;;;;22.37;14.90;;;23.20;64.00;;;;;;5022197;28;20280;-92
2022/08/16 05:51:53;;;;;;;22.20;14.70;;;23.30;64.30;;;;;;5005523;28;20198;-92
2022/08/16 05:54:35;;;;;;;18.57;14.63;;;23.30;64.00;;;;;;4991549;28;20660;-91
2022/08/16 05:57:11;;;;;;;20.93;13.73;;;23.30;64.20;;;;;;5002462;28;20198;-95
2022/08/16 05:59:47;;;;;;;20.23;15.73;;;23.30;64.40;;;;;;5007482;28;20264;-91
2022/08/16 06:02:20;;;;;;;18.20;13.43;;;23.30;64.50;;;;;;5009311;28;20236;-91
2022/08/16 06:04:56;;;;;;;17.23;14.33;;;23.40;64.50;;;;;;5013086;28;20223;-94
2022/08/16 06:07:34;;;;;;;22.70;15.10;;;23.40;64.70;;;;;;5005499;28;20214;-91
2022/08/16 06:10:06;;;;;;;17.50;13.80;;;23.40;64.80;;;;;;5010661;28;20200;-93
2022/08/16 06:12:35;;;;;;;17.23;13.30;;;23.50;64.70;;;;;;5007856;28;20243;-91
2022/08/16 06:15:08;;;;;;;16.83;13.40;;;23.50;64.50;;;;;;5011548;28;21046;-94
2022/08/16 06:17:49;;;;;;;16.43;12.63;;;23.50;64.70;;;;;;5006563;28;20204;-95
2022/08/16 06:20:19;;;;;;;14.40;12.20;;;23.50;64.90;;;;;;5013973;28;20238;-93
2022/08/16 06:22:49;;;;;;;15.43;12.37;;;23.60;64.70;;;;;;5011228;28;20273;-90
2022/08/16 06:25:17;;;;;;;23.17;14.43;;;23.60;64.60;;;;;;5010040;28;20333;-95
2022/08/16 06:27:49;;;;;;;18.30;12.63;;;23.60;64.60;;;;;;5027412;28;20199;-92
2022/08/16 06:30:21;;;;;;;15.90;13.27;;;23.60;64.80;;;;;;5017273;28;20177;-95
2022/08/16 06:35:46;;;;;;;15.60;13.30;;;23.70;65.10;;;;;;5016717;28;20249;-94
2022/08/16 06:38:28;;;;;;;17.17;12.30;;;23.70;64.80;;;;;;5016484;28;20227;-94
2022/08/16 06:41:25;;;;;;;13.33;11.87;;;23.70;65.20;;;;;;5016140;28;20219;-95
2022/08/16 06:43:58;;;;;;;15.63;12.60;;;23.70;65.20;;;;;;5014174;28;20284;-95
2022/08/16 06:46:40;;;;;;;17.27;13.33;;;23.80;65.00;;;;;;5010603;28;20215;-91
2022/08/16 06:49:20;;;;;;;11.97;10.27;;;23.80;65.10;;;;;;4994018;28;20215;-93
2022/08/16 06:52:02;;;;;;;10.27;8.87;;;23.80;65.30;;;;;;5007636;28;20260;-91
2022/08/16 06:57:24;;;;;;;24.10;15.00;;;23.90;65.50;;;;;;5146313;23;20253;-96
2022/08/16 07:02:44;;;;;;;13.00;11.63;;;24.00;65.40;;;;;;5016325;28;20227;-91
2022/08/16 07:05:17;;;;;;;19.30;13.23;;;24.10;65.60;;;;;;5010519;28;20236;-93
2022/08/16 07:07:55;;;;;;;18.40;12.30;;;24.10;65.50;;;;;;5006180;28;20210;-94
2022/08/16 07:10:28;;;;;;;16.43;12.77;;;24.20;65.40;;;;;;5011012;28;20208;-96
2022/08/16 07:13:39;;;;;;;15.13;11.97;;;24.20;65.50;;;;;;5012000;28;20214;-94
2022/08/16 07:16:48;;;;;;;15.17;11.87;;;24.30;65.50;;;;;;4996586;28;20214;-96
2022/08/16 07:23:12;;;;;;;14.97;11.47;;;24.40;65.00;;;;;;4989600;28;20265;-95
2022/08/16 07:26:21;;;;;;;14.60;10.33;;;24.40;65.20;;;;;;4977995;28;20675;-95
2022/08/16 07:29:16;;;;;;;13.50;12.03;;;24.50;65.00;;;;;;4971904;28;20211;-92
2022/08/16 07:31:55;;;;;;;17.20;11.47;;;24.50;65.00;;;;;;4995166;28;20210;-93
2022/08/16 07:34:29;;;;;;;19.30;11.63;;;24.60;65.00;;;;;;4992712;28;20198;-95
2022/08/16 07:37:02;;;;;;;14.27;11.33;;;24.60;64.90;;;;;;4996116;28;20207;-94
2022/08/16 07:39:34;;;;;;;15.27;11.97;;;24.60;64.90;;;;;;4993158;28;20221;-94
2022/08/16 07:42:17;;;;;;;12.37;11.17;;;24.70;65.00;;;;;;4995481;28;20293;-96
2022/08/16 07:44:56;;;;;;;17.83;11.67;;;24.70;65.00;;;;;;4994632;28;20567;-96
2022/08/16 07:50:30;;;;;;;12.10;9.70;;;24.80;65.10;;;;;;4993463;28;20207;-96
2022/08/16 07:53:06;;;;;;;12.30;10.07;;;24.80;64.70;;;;;;4997073;28;20202;-92
2022/08/16 07:56:11;;;;;;;15.77;11.30;;;24.80;64.70;;;;;;4996743;28;20209;-94
2022/08/16 07:58:52;;;;;;;12.77;11.03;;;24.80;64.80;;;;;;4977500;28;20222;-91
2022/08/16 08:01:51;;;;;;;14.63;11.00;;;24.80;64.70;;;;;;4976216;28;20216;-91
2022/08/16 08:07:07;;;;;;;11.57;10.33;;;24.90;64.70;;;;;;4979839;28;20191;-92
2022/08/16 08:09:44;;;;;;;13.13;11.17;;;24.90;64.70;;;;;;4980576;28;20210;-92
2022/08/16 08:12:19;;;;;;;12.60;11.07;;;24.90;64.90;;;;;;4995220;28;20190;-91
2022/08/16 08:14:55;;;;;;;11.47;10.20;;;25.00;65.00;;;;;;4997994;28;20210;-90
2022/08/16 08:20:14;;;;;;;18.13;12.53;;;25.00;64.90;;;;;;4994135;28;20219;-92
2022/08/16 08:22:45;;;;;;;12.67;10.70;;;25.10;65.10;;;;;;4996055;28;20214;-90
2022/08/16 08:25:20;;;;;;;14.97;10.90;;;25.10;65.00;;;;;;4998125;28;20198;-93
2022/08/16 08:28:01;;;;;;;13.17;11.43;;;25.20;65.10;;;;;;4996488;28;20195;-91
2022/08/16 08:33:26;;;;;;;13.43;10.70;;;25.20;64.70;;;;;;4995300;28;20226;-93
2022/08/16 08:36:02;;;;;;;14.07;12.27;;;25.30;64.70;;;;;;4992854;28;20233;-92
2022/08/16 08:41:19;;;;;;;12.57;11.20;;;25.40;64.70;;;;;;4996781;28;20206;-96
2022/08/16 08:44:05;;;;;;;12.47;10.43;;;25.40;64.50;;;;;;4999709;28;20187;-91
2022/08/16 08:46:39;;;;;;;15.17;11.83;;;25.40;64.50;;;;;;4998651;28;20183;-95
2022/08/16 08:49:39;;;;;;;13.37;9.93;;;25.40;64.30;;;;;;4998722;28;20191;-92
2022/08/16 08:52:39;;;;;;;16.33;11.57;;;25.50;64.40;;;;;;4994542;28;20207;-96
2022/08/16 08:55:21;;;;;;;12.80;9.37;;;25.50;64.20;;;;;;4993489;28;20222;-92
2022/08/16 08:57:51;;;;;;;12.40;11.10;;;25.60;64.10;;;;;;4988863;28;20213;-95
2022/08/16 09:00:33;;;;;;;13.47;10.77;;;25.60;63.90;;;;;;4991848;28;20191;-93
2022/08/16 09:03:00;;;;;;;14.17;11.00;;;25.70;63.80;;;;;;4997921;28;20230;-92
2022/08/16 09:06:08;;;;;;;12.60;10.50;;;25.70;64.00;;;;;;4997971;28;20171;-93
2022/08/16 09:12:02;;;;;;;13.03;9.67;;;25.90;63.90;;;;;;5012213;28;20210;-92
2022/08/16 09:14:52;;;;;;;9.73;8.73;;;26.00;63.70;;;;;;5014400;28;20277;-91
2022/08/16 09:18:11;;;;;;;9.47;8.00;;;26.20;63.70;;;;;;5013901;28;20204;-92
2022/08/16 09:21:27;;;;;;;14.10;9.37;;;26.30;63.70;;;;;;4970574;28;20204;-92
2022/08/16 09:24:38;;;;;;;9.33;7.97;;;26.50;62.30;;;;;;4970730;28;20203;-95
2022/08/16 09:27:30;;;;;;;13.80;8.57;;;26.60;61.90;;;;;;4980598;28;20221;-91
2022/08/16 09:30:25;;;;;;;8.57;7.67;;;26.80;61.20;;;;;;4990873;28;20230;-92
2022/08/16 09:32:54;;;;;;;9.53;8.13;;;27.00;61.20;;;;;;4992503;28;20210;-91
2022/08/16 09:35:34;;;;;;;11.17;8.60;;;27.10;61.00;;;;;;4988564;28;20727;-92
2022/08/16 09:38:05;;;;;;;10.53;7.97;;;27.10;59.90;;;;;;4990513;28;20221;-91
2022/08/16 09:41:11;;;;;;;13.70;9.70;;;27.20;59.80;;;;;;4989855;28;20680;-94
2022/08/16 09:50:31;;;;;;;12.43;8.17;;;27.40;58.60;;;;;;5345731;23;20752;-96
2022/08/16 09:56:36;;;;;;;11.37;8.37;;;27.50;58.80;;;;;;5046160;23;20240;-96
2022/08/16 09:59:19;;;;;;;10.70;7.50;;;27.50;58.80;;;;;;5022826;28;20296;-96
2022/08/16 10:02:17;;;;;;;14.93;8.90;;;27.60;58.90;;;;;;5021501;28;20244;-96
2022/08/16 10:05:08;;;;;;;18.80;9.00;;;27.60;58.60;;;;;;5014210;28;20202;-96
2022/08/16 10:08:03;;;;;;;16.87;9.50;;;27.70;58.60;;;;;;5022171;28;20212;-96
2022/08/16 10:14:29;;;;;;;13.50;7.63;;;27.80;58.20;;;;;;5032333;28;20255;-96
2022/08/16 10:43:52;;;;;;;8.80;6.73;;;28.30;57.10;;;;;;5369466;22;20212;-96
2022/08/16 10:47:08;;;;;;;10.30;6.50;;;28.50;57.00;;;;;;5033710;28;20219;-96
2022/08/16 10:49:37;;;;;;;11.10;6.90;;;28.60;56.80;;;;;;5040728;28;20260;-94
2022/08/16 10:52:05;;;;;;;7.37;5.47;;;28.80;57.40;;;;;;5033459;28;20205;-96
2022/08/16 10:54:33;;;;;;;8.80;6.20;;;29.00;57.00;;;;;;5032238;28;20295;-94
2022/08/16 10:57:03;;;;;;;11.13;6.03;;;29.10;56.10;;;;;;5034433;28;20204;-94
2022/08/16 10:59:34;;;;;;;10.97;5.63;;;29.40;55.80;;;;;;5033072;28;20212;-94
2022/08/16 11:02:02;;;;;;;9.67;5.73;;;29.50;55.70;;;;;;5034972;28;20645;-94
2022/08/16 11:04:29;;;;;;;8.97;5.40;;;29.70;55.90;;;;;;5036309;28;20697;-93
2022/08/16 11:06:57;;;;;;;11.13;5.80;;;29.80;56.00;;;;;;5033771;28;20205;-95
2022/08/16 11:09:24;;;;;;;11.47;5.80;;;30.00;55.50;;;;;;5034220;28;20243;-93
2022/08/16 11:11:51;;;;;;;7.97;5.90;;;30.20;54.90;;;;;;5034145;28;20259;-93
2022/08/16 11:14:18;;;;;;;8.17;4.73;;;30.30;54.20;;;;;;5032003;28;20240;-91
2022/08/16 11:16:47;;;;;;;8.33;5.40;;;30.50;54.10;;;;;;5036964;28;20280;-93
2022/08/16 11:19:16;;;;;;;8.13;5.63;;;30.60;53.30;;;;;;5036301;28;20296;-92
2022/08/16 11:21:45;;;;;;;9.17;5.30;;;30.70;53.20;;;;;;5039562;28;20270;-92
2022/08/16 11:24:17;;;;;;;7.27;4.17;;;30.80;52.20;;;;;;5037251;28;20204;-94
2022/08/16 11:26:44;;;;;;;8.17;4.90;;;30.90;50.90;;;;;;5042637;28;20193;-91
2022/08/16 11:29:12;;;;;;;6.10;3.93;;;30.90;51.50;;;;;;5039859;28;20278;-93
2022/08/16 11:32:01;;;;;;;5.20;3.60;;;30.90;50.90;;;;;;5034491;28;20212;-96
2022/08/16 11:34:28;;;;;;;7.00;4.10;;;30.90;49.20;;;;;;5033987;28;20205;-91
2022/08/16 11:36:56;;;;;;;13.23;7.13;;;30.90;50.10;;;;;;5032098;28;20214;-93
2022/08/16 11:39:23;;;;;;;12.83;5.40;;;30.90;49.50;;;;;;5031372;28;20259;-91
2022/08/16 11:41:50;;;;;;;11.10;5.20;;;30.80;49.50;;;;;;5035068;28;20322;-95
2022/08/16 11:44:19;;;;;;;10.60;5.20;;;30.70;49.00;;;;;;5033376;28;20760;-94
2022/08/16 11:46:47;;;;;;;8.57;4.63;;;30.70;48.70;;;;;;5020262;28;20621;-94
2022/08/16 11:49:17;;;;;;;9.23;5.40;;;30.60;48.70;;;;;;5033418;28;20237;-93
2022/08/16 11:51:45;;;;;;;12.63;6.60;;;30.60;48.60;;;;;;5030845;28;20339;-94
2022/08/16 11:54:15;;;;;;;7.43;4.43;;;30.50;49.10;;;;;;5028036;28;20305;-93
2022/08/16 11:56:43;;;;;;;5.63;4.17;;;30.40;48.80;;;;;;5032987;28;20201;-96
2022/08/16 11:59:10;;;;;;;4.83;4.07;;;30.30;48.90;;;;;;5034501;28;20827;-92
2022/08/16 12:01:37;;;;;;;7.33;4.27;;;30.40;49.00;;;;;;5030627;28;20197;-92
2022/08/16 12:04:07;;;;;;;11.27;5.37;;;30.30;49.00;;;;;;5028477;28;20217;-93
2022/08/16 12:06:36;;;;;;;9.93;4.90;;;30.30;48.80;;;;;;5032043;28;20273;-96
2022/08/16 12:09:08;;;;;;;8.57;4.17;;;30.40;49.10;;;;;;5033008;28;20287;-95
2022/08/16 12:11:37;;;;;;;7.03;4.60;;;30.40;48.50;;;;;;5031393;28;20239;-92
2022/08/16 12:14:06;;;;;;;5.03;3.93;;;30.40;49.20;;;;;;5030121;28;20252;-95
2022/08/16 12:16:35;;;;;;;6.90;4.80;;;30.50;48.60;;;;;;5032934;28;20201;-94
2022/08/16 12:19:03;;;;;;;10.00;5.20;;;30.50;48.60;;;;;;5030322;28;20193;-94
2022/08/16 12:21:30;;;;;;;6.83;4.67;;;30.60;48.60;;;;;;5030061;28;20688;-93
2022/08/16 12:23:59;;;;;;;7.33;4.83;;;30.60;48.50;;;;;;5028843;28;20228;-93
2022/08/16 12:26:26;;;;;;;7.73;4.93;;;30.70;48.10;;;;;;5022526;28;20272;-91
2022/08/16 12:28:53;;;;;;;12.23;6.47;;;30.80;48.80;;;;;;5025369;28;20200;-92
2022/08/16 12:31:21;;;;;;;10.17;5.47;;;31.00;48.90;;;;;;5028383;28;20262;-93
2022/08/16 12:33:51;;;;;;;6.78;4.50;;;31.10;48.60;;;;;;5028252;28;20211;-91
2022/08/16 12:36:23;;;;;;;6.35;4.15;;;31.20;48.10;;;;;;5025930;28;20205;-96
2022/08/16 12:38:53;;;;;;;5.63;4.22;;;31.40;47.90;;;;;;5027864;28;20292;-92
2022/08/16 12:41:23;;;;;;;5.38;3.97;;;31.60;47.60;;;;;;5029141;28;20234;-94
2022/08/16 12:43:53;;;;;;;6.60;3.88;;;31.80;47.30;;;;;;5030374;28;20493;-91
2022/08/16 12:46:21;;;;;;;6.32;4.50;;;32.00;47.40;;;;;;5033159;28;20201;-92
2022/08/16 12:48:56;;;;;;;10.65;4.40;;;32.10;47.00;;;;;;5031420;28;20196;-92
2022/08/16 12:51:30;;;;;;;6.10;3.95;;;32.30;46.90;;;;;;5032113;28;20196;-95
2022/08/16 12:54:00;;;;;;;4.75;3.80;;;32.50;46.10;;;;;;5031173;28;20204;-94
2022/08/16 12:56:32;;;;;;;7.13;4.82;;;32.60;46.40;;;;;;5029790;28;20197;-94
2022/08/16 12:59:04;;;;;;;5.45;4.22;;;32.80;46.00;;;;;;5033107;28;20672;-95
2022/08/16 13:01:33;;;;;;;6.72;3.30;;;32.90;45.70;;;;;;5033146;28;20236;-95
2022/08/16 13:04:07;;;;;;;5.20;4.05;;;33.00;45.30;;;;;;5038326;28;20225;-95
2022/08/16 13:06:59;;;;;;;4.88;3.25;;;33.10;44.60;;;;;;5032640;28;20200;-93
2022/08/16 13:09:50;;;;;;;6.95;3.35;;;33.20;44.40;;;;;;5053066;28;20193;-95
2022/08/16 13:12:49;;;;;;;3.20;2.90;;;33.20;44.80;;;;;;5053800;28;20267;-96
2022/08/16 13:15:27;;;;;;;4.03;2.83;;;33.30;44.30;;;;;;5051071;28;20213;-96
2022/08/16 13:17:58;;;;;;;7.28;4.03;;;33.40;44.10;;;;;;5043218;28;20221;-94
2022/08/16 13:20:35;;;;;;;7.07;3.75;;;33.40;43.80;;;;;;5047504;28;20195;-91
2022/08/16 13:23:07;;;;;;;4.38;2.95;;;33.50;43.20;;;;;;5049647;28;20232;-96
2022/08/16 13:25:58;;;;;;;3.33;3.03;;;33.50;43.50;;;;;;5049527;28;20220;-94
2022/08/16 13:28:36;;;;;;;4.07;3.65;;;33.50;43.00;;;;;;5052496;28;20211;-96
2022/08/16 13:31:07;;;;;;;5.97;4.30;;;33.50;42.80;;;;;;5053711;28;20204;-94
2022/08/16 13:33:43;;;;;;;8.80;4.15;;;33.50;43.30;;;;;;5018934;28;20277;-95
2022/08/16 13:36:32;;;;;;;7.70;3.88;;;33.60;42.40;;;;;;5053609;28;20223;-95
2022/08/16 13:39:15;;;;;;;7.55;4.15;;;33.60;42.30;;;;;;5051975;28;20256;-96
2022/08/16 13:41:46;;;;;;;6.03;3.55;;;33.50;42.90;;;;;;5047793;28;20291;-96
2022/08/16 13:44:24;;;;;;;3.55;3.17;;;33.50;42.70;;;;;;5046262;28;20236;-96
2022/08/16 13:46:51;;;;;;;3.85;3.40;;;33.50;42.40;;;;;;5027158;28;20201;-96
2022/08/16 13:49:18;;;;;;;8.85;4.90;;;33.50;42.90;;;;;;5051253;28;20193;-92
2022/08/16 13:51:54;;;;;;;7.63;5.55;;;33.50;43.10;;;;;;5048914;28;20246;-94
2022/08/16 13:54:32;;;;;;;6.72;4.18;;;33.40;43.40;;;;;;5050737;28;20192;-96
2022/08/16 13:57:04;;;;;;;5.28;4.07;;;33.50;44.00;;;;;;5044894;28;20545;-95
2022/08/16 13:59:42;;;;;;;5.28;4.78;;;33.50;44.00;;;;;;5043126;28;20192;-96
2022/08/16 14:02:10;;;;;;;6.85;5.47;;;33.40;44.20;;;;;;5033205;28;20254;-93
2022/08/16 14:04:42;;;;;;;5.25;4.60;;;33.40;44.50;;;;;;5029604;28;20220;-96
2022/08/16 14:07:17;;;;;;;8.50;5.72;;;33.40;44.30;;;;;;5048649;28;20201;-95
2022/08/16 14:09:48;;;;;;;8.80;4.95;;;33.40;44.30;;;;;;5054551;28;20192;-94
2022/08/16 14:12:27;;;;;;;6.38;3.53;;;33.40;44.10;;;;;;5055735;28;20220;-93
2022/08/16 14:15:16;;;;;;;7.00;4.20;;;33.40;43.70;;;;;;5054110;28;20196;-96
2022/08/16 14:17:54;;;;;;;6.55;3.78;;;33.40;43.60;;;;;;5034649;28;20198;-93
2022/08/16 14:20:24;;;;;;;9.00;3.70;;;33.40;43.80;;;;;;5034094;28;20694;-95
2022/08/16 14:22:55;;;;;;;7.10;4.70;;;33.30;43.60;;;;;;5038768;28;20213;-96
2022/08/16 14:25:27;;;;;;;8.02;4.97;;;33.30;43.50;;;;;;5038866;28;20247;-96
2022/08/16 14:28:04;;;;;;;9.75;4.70;;;33.30;43.40;;;;;;5041138;28;20607;-93
2022/08/16 14:30:37;;;;;;;6.50;3.92;;;33.30;43.40;;;;;;5043238;28;20199;-95